Autre station à proximité

 

CYBG - Bagotville(Can M, Quebec, Canada
Distance entre Chicoutimi et cette station: SSE 11km
Mise à jour: 24/09/2018 05:00
Dégagé
Dégagé
 Wind from OSO
Vent: OSO 7 km/h
Température: -1°C
Wind Chill: -4°C
Point de rosée: -4°C
Humidité: 80%
Baromètre: 1035.6 hPa
État du ciel: Dégagé
Visibilité: 40 km
2018/09/24 09:00 CYBG 240900Z 25004KT 25SM SKC M01/M04 A3058 RMK SLP365
CYRJ - Roberval Airport, Quebec, Canada
Distance entre Chicoutimi et cette station: O 92km
Mise à jour: 24/09/2018 05:00
Few Clouds
Few Clouds
 Wind from O
Vent: O 9 km/h
Température: -2°C
Wind Chill: -6°C
Point de rosée: -5°C
Humidité: 80%
Baromètre: 1035.6 hPa
État du ciel: Few Clouds
Visibilité: 40 km
État du ciel détaillé: Few Clouds 610 m
2018/09/24 09:00 CYRJ 240900Z 27005KT 25SM FEW020 M02/M05 A3058 RMK SC1 SC TR SLP367
 
CWJO - Jonquiere, Quebec, Canada
Distance entre Chicoutimi et cette station: O 9km
Mise à jour: 24/09/2018 04:00

 Wind from ONO
Vent: ONO 15 km/h
Température: 1°C
Wind Chill: -3°C
Point de rosée: -3°C
Humidité: 75%
2018/09/24 08:00 CWJO 240800Z AUTO 29008KT 01/M03 RMK AO1 SLP362 T00061034 52017
CWXC - Onatchiway, Quebec, Canada
Distance entre Chicoutimi et cette station: N 50km
Mise à jour: 24/09/2018 04:00

 Wind from SSE
Vent: SSE 4 km/h
Température: -5°C
Point de rosée: -5°C
Humidité: 100%
2018/09/24 08:00 CWXC 240800Z AUTO 15002KT M05/M05 RMK AO1 SLP341 T10471047 53019
 
CWIX - Mistook , Quebec, Canada
Distance entre Chicoutimi et cette station: ONO 55km
Mise à jour: 23/09/2018 20:00
NOT Current

 Wind from NO
Vent: NO 22 km/h
Température: 5°C
Wind Chill: 1°C
Point de rosée: -4°C
Humidité: 53%
2018/09/24 00:00 CWIX 240000Z AUTO 32012KT 05/M04 RMK AO1 SLP296 T00511039 53030
CWQV - Pointe Claveau, Quebec, Canada
Distance entre Chicoutimi et cette station: ESE 69km
Mise à jour: 24/09/2018 05:00

 Wind from O
Vent: O 22 km/h
Température: 4°C
Wind Chill: -1°C
2018/09/24 09:00 CWQV 240900Z AUTO 28012KT 04/ RMK AO1 T0037
 
CWPD - Parc Des Laurent, Quebec, Canada
Distance entre Chicoutimi et cette station: S 97km
Mise à jour: 24/09/2018 05:00

 Wind from NNO
Vent: NNO 6 km/h
Température: -5°C
Point de rosée: -7°C
Humidité: 86%
2018/09/24 09:00 CWPD 240900Z AUTO 34003KT M05/M07 RMK AO1 SLP346 T10451066 52019
CWOD - Normandin, Quebec, Canada
Distance entre Chicoutimi et cette station: ONO 129km
Mise à jour: 24/09/2018 05:00

 Wind from ONO
Vent: ONO 11 km/h
Température: -3°C
Wind Chill: -7°C
Point de rosée: -5°C
Humidité: 86%
2018/09/24 09:00 CWOD 240900Z AUTO 30006KT M03/M05 RMK AO1 SLP350 T10291049 53018
 
CWIS - Charlevoix (mrx), Quebec, Canada
Distance entre Chicoutimi et cette station: SSE 120km
Mise à jour: 24/09/2018 05:00

 Wind from NE
Vent: NE 4 km/h
Température: -3°C
Point de rosée: -7°C
Humidité: 74%
2018/09/24 09:00 CWIS 240900Z AUTO 04002KT M03/M07 RMK AO1 SLP347 T10331072 53019